Time;durP1;ratioP1;P1;durP2;ratioP2;P2;SDS_P1;SDS_P2;PMS_P1;PMS_P2;Temp;Humidity;BMP_temperature;BMP_pressure;BME280_temperature;BME280_humidity;BME280_pressure;Samples;Min_cycle;Max_cycle;Signal;HPM_P1;HPM_P2
2022/09/15 00:01:03;;;;;;;;;;;15.90;99.90;;;;;;8415446;28;19976;-72
2022/09/15 00:05:04;;;;;;;;;;;15.90;99.90;;;;;;8411311;28;20267;-73
2022/09/15 00:09:06;;;;;;;;;;;16.00;99.90;;;;;;8409053;28;19931;-72
2022/09/15 00:13:07;;;;;;;;;;;16.00;99.90;;;;;;8412140;28;20386;-73
2022/09/15 00:22:06;;;;;;;;;;;15.90;99.90;;;;;;8409668;28;19959;-73
2022/09/15 00:26:08;;;;;;;;;;;15.90;99.90;;;;;;8412682;28;19936;-73
2022/09/15 00:30:10;;;;;;;;;;;15.90;99.90;;;;;;8411684;28;19947;-72
2022/09/15 00:34:12;;;;;;;;;;;15.90;99.90;;;;;;8412741;28;20031;-73
2022/09/15 00:38:15;;;;;;;;;;;15.80;99.90;;;;;;8413464;28;19924;-72
2022/09/15 00:42:17;;;;;;;;;;;15.80;99.90;;;;;;8404979;28;20339;-73
2022/09/15 00:46:21;;;;;;;;;;;15.80;99.90;;;;;;8404943;28;19928;-73
2022/09/15 00:50:23;;;;;;;;;;;15.80;99.90;;;;;;8409560;28;19924;-72
2022/09/15 00:54:27;;;;;;;;;;;15.80;99.90;;;;;;8405871;28;19925;-72
2022/09/15 00:58:33;;;;;;;;;;;15.80;99.90;;;;;;8402146;28;19963;-73
2022/09/15 01:02:36;;;;;;;;;;;15.80;99.90;;;;;;8421204;28;20014;-72
2022/09/15 01:06:46;;;;;;;;;;;15.80;99.90;;;;;;8412585;28;19946;-73
2022/09/15 01:10:50;;;;;;;;;;;15.70;99.90;;;;;;8415588;28;19924;-73
2022/09/15 01:14:52;;;;;;;;;;;15.70;99.90;;;;;;8411840;28;20290;-72
2022/09/15 01:24:16;;;;;;;;;;;15.70;99.90;;;;;;8418598;28;19927;-73
2022/09/15 01:28:29;;;;;;;;;;;15.70;99.90;;;;;;8411350;28;19931;-73
2022/09/15 01:37:04;;;;;;;;;;;15.60;99.90;;;;;;8409395;28;19985;-73
2022/09/15 01:41:06;;;;;;;;;;;15.50;99.90;;;;;;8414109;28;19930;-73
2022/09/15 01:45:10;;;;;;;;;;;15.50;99.90;;;;;;8417865;28;19924;-73
2022/09/15 01:49:17;;;;;;;;;;;15.50;99.90;;;;;;8417625;28;19928;-73
2022/09/15 01:53:20;;;;;;;;;;;15.50;99.90;;;;;;8409643;28;20420;-73
2022/09/15 01:57:22;;;;;;;;;;;15.50;99.90;;;;;;8417158;28;19978;-73
2022/09/15 02:01:39;;;;;;;;;;;15.50;99.90;;;;;;8410545;28;19924;-72
2022/09/15 02:05:43;;;;;;;;;;;15.50;99.90;;;;;;8410708;28;20287;-73
2022/09/15 02:09:54;;;;;;;;;;;15.60;99.90;;;;;;8446692;27;19977;-73
2022/09/15 02:14:11;;;;;;;;;;;15.60;99.90;;;;;;8409393;28;19928;-72
2022/09/15 02:18:16;;;;;;;;;;;15.70;99.90;;;;;;8404785;28;19928;-73
2022/09/15 02:22:23;;;;;;;;;;;15.70;99.90;;;;;;8412922;28;19935;-72
2022/09/15 02:26:26;;;;;;;;;;;15.70;99.90;;;;;;8395368;28;19974;-72
2022/09/15 02:30:30;;;;;;;;;;;15.70;99.90;;;;;;8411126;28;19963;-73
2022/09/15 02:34:35;;;;;;;;;;;15.60;99.90;;;;;;8414432;28;19975;-73
2022/09/15 02:38:38;;;;;;;;;;;15.60;99.90;;;;;;8405645;28;20452;-72
2022/09/15 02:42:41;;;;;;;;;;;15.60;99.90;;;;;;8404062;28;19936;-72
2022/09/15 02:46:42;;;;;;;;;;;15.60;99.90;;;;;;8409044;28;19932;-73
2022/09/15 02:50:44;;;;;;;;;;;15.50;99.90;;;;;;8411871;28;19931;-73
2022/09/15 02:54:46;;;;;;;;;;;15.50;99.90;;;;;;8403179;28;19924;-72
2022/09/15 02:58:47;;;;;;;;;;;15.50;99.90;;;;;;8406999;28;19928;-73
2022/09/15 03:02:50;;;;;;;;;;;15.50;99.90;;;;;;8400534;28;19995;-73
2022/09/15 03:06:52;;;;;;;;;;;15.50;99.90;;;;;;8398654;28;19924;-72
2022/09/15 03:10:56;;;;;;;;;;;15.50;99.90;;;;;;8433863;27;20383;-72
2022/09/15 03:14:57;;;;;;;;;;;15.50;99.90;;;;;;8405634;28;19934;-72
2022/09/15 03:19:00;;;;;;;;;;;15.40;99.90;;;;;;8427020;27;20397;-72
2022/09/15 03:23:02;;;;;;;;;;;15.40;99.90;;;;;;8412197;28;19975;-73
2022/09/15 03:27:04;;;;;;;;;;;15.40;99.90;;;;;;8410439;28;19935;-72
2022/09/15 03:31:06;;;;;;;;;;;15.40;99.90;;;;;;8414102;28;20245;-72
2022/09/15 03:35:08;;;;;;;;;;;15.40;99.90;;;;;;8409054;28;19924;-72
2022/09/15 03:39:10;;;;;;;;;;;15.40;99.90;;;;;;8405460;28;19942;-73
2022/09/15 03:43:12;;;;;;;;;;;15.40;99.90;;;;;;8405424;28;20408;-72
2022/09/15 03:47:19;;;;;;;;;;;15.40;99.90;;;;;;8423044;28;19935;-73
2022/09/15 03:51:20;;;;;;;;;;;15.40;99.90;;;;;;8421445;28;20082;-73
2022/09/15 03:55:22;;;;;;;;;;;15.40;99.90;;;;;;8421241;28;19930;-72
2022/09/15 03:59:24;;;;;;;;;;;15.40;99.90;;;;;;8418595;28;20382;-73
2022/09/15 04:03:25;;;;;;;;;;;15.40;99.90;;;;;;8405663;28;20364;-73
2022/09/15 04:07:27;;;;;;;;;;;15.40;99.90;;;;;;8418785;28;20696;-73
2022/09/15 04:11:28;;;;;;;;;;;15.40;99.90;;;;;;8453298;27;19943;-72
2022/09/15 04:15:30;;;;;;;;;;;15.40;99.90;;;;;;8415372;28;19924;-72
2022/09/15 04:19:32;;;;;;;;;;;15.40;99.90;;;;;;8407253;28;20024;-73
2022/09/15 04:23:33;;;;;;;;;;;15.40;99.90;;;;;;8407276;28;20600;-74
2022/09/15 04:27:37;;;;;;;;;;;15.40;99.90;;;;;;8414691;28;19932;-73
2022/09/15 04:31:39;;;;;;;;;;;15.40;99.90;;;;;;8416650;28;19966;-73
2022/09/15 04:35:40;;;;;;;;;;;15.40;99.90;;;;;;8421290;28;19928;-74
2022/09/15 04:39:43;;;;;;;;;;;15.40;99.90;;;;;;8414346;28;19932;-73
2022/09/15 04:43:45;;;;;;;;;;;15.50;99.90;;;;;;8418505;28;20014;-73
2022/09/15 04:47:47;;;;;;;;;;;15.40;99.90;;;;;;8413317;28;19928;-73
2022/09/15 04:51:51;;;;;;;;;;;15.50;99.90;;;;;;8412071;28;19939;-72
2022/09/15 04:55:59;;;;;;;;;;;15.50;99.90;;;;;;8419098;28;20648;-73
2022/09/15 05:00:04;;;;;;;;;;;15.50;99.90;;;;;;8414903;28;19939;-73
2022/09/15 05:04:06;;;;;;;;;;;15.50;99.90;;;;;;8411299;28;19935;-73
2022/09/15 05:08:07;;;;;;;;;;;15.50;99.90;;;;;;8427316;28;19924;-72
2022/09/15 05:12:09;;;;;;;;;;;15.50;99.90;;;;;;8422705;28;20360;-73
2022/09/15 05:16:11;;;;;;;;;;;15.60;99.90;;;;;;8414545;28;19924;-73
2022/09/15 05:20:13;;;;;;;;;;;15.60;99.90;;;;;;8412438;28;19928;-73
2022/09/15 05:24:15;;;;;;;;;;;15.60;99.90;;;;;;8409945;28;19924;-73
2022/09/15 05:28:16;;;;;;;;;;;15.60;99.90;;;;;;8416935;28;19924;-73
2022/09/15 05:32:19;;;;;;;;;;;15.60;99.90;;;;;;8424159;28;19931;-73
2022/09/15 05:36:24;;;;;;;;;;;15.60;99.90;;;;;;8409842;28;19925;-73
2022/09/15 05:40:25;;;;;;;;;;;15.60;99.90;;;;;;8408587;28;20430;-73
2022/09/15 05:44:27;;;;;;;;;;;15.60;99.90;;;;;;8411827;28;19924;-73
2022/09/15 05:48:29;;;;;;;;;;;15.60;99.90;;;;;;8415544;28;19932;-73
2022/09/15 05:52:31;;;;;;;;;;;15.60;99.90;;;;;;8412899;28;20437;-74
2022/09/15 05:56:32;;;;;;;;;;;15.60;99.90;;;;;;8412427;28;19932;-74
2022/09/15 06:00:34;;;;;;;;;;;15.60;99.90;;;;;;8412249;28;20267;-73
2022/09/15 06:04:36;;;;;;;;;;;15.60;99.90;;;;;;8406340;28;19964;-73
2022/09/15 06:08:39;;;;;;;;;;;15.60;99.90;;;;;;8409301;28;20306;-72
2022/09/15 06:12:44;;;;;;;;;;;15.60;99.90;;;;;;8417697;28;19923;-72
2022/09/15 06:16:46;;;;;;;;;;;15.70;99.90;;;;;;8422338;28;20011;-72
2022/09/15 06:20:47;;;;;;;;;;;15.70;99.90;;;;;;8413266;28;20363;-73
2022/09/15 06:24:49;;;;;;;;;;;15.70;99.90;;;;;;8411919;28;20007;-73
2022/09/15 06:28:57;;;;;;;;;;;15.80;99.90;;;;;;8418491;28;20393;-73
2022/09/15 06:32:58;;;;;;;;;;;15.80;99.90;;;;;;8400908;28;19932;-73
2022/09/15 06:37:00;;;;;;;;;;;15.80;99.90;;;;;;8410668;28;20011;-72
2022/09/15 06:41:02;;;;;;;;;;;15.80;99.90;;;;;;8413563;28;20370;-73
2022/09/15 06:45:03;;;;;;;;;;;15.90;99.90;;;;;;8411346;28;19928;-73
2022/09/15 06:49:05;;;;;;;;;;;15.90;99.90;;;;;;8423424;28;19933;-72
2022/09/15 06:53:07;;;;;;;;;;;16.00;99.90;;;;;;8413879;28;19975;-73
2022/09/15 06:57:09;;;;;;;;;;;16.00;99.90;;;;;;8407276;28;19932;-73
2022/09/15 07:01:11;;;;;;;;;;;16.00;99.90;;;;;;8412148;28;19936;-73
2022/09/15 07:05:13;;;;;;;;;;;16.10;99.90;;;;;;8402433;28;20017;-72
2022/09/15 07:09:15;;;;;;;;;;;16.10;99.90;;;;;;8391223;28;19931;-72
2022/09/15 07:13:16;;;;;;;;;;;16.10;99.90;;;;;;8385999;28;19924;-72
2022/09/15 07:17:18;;;;;;;;;;;16.20;99.90;;;;;;8384488;28;19931;-72
2022/09/15 07:21:20;;;;;;;;;;;16.20;99.90;;;;;;8388858;28;19935;-72
2022/09/15 07:25:21;;;;;;;;;;;16.30;99.90;;;;;;8390759;28;20372;-72
2022/09/15 07:29:23;;;;;;;;;;;16.30;99.90;;;;;;8389940;28;19935;-73
2022/09/15 07:33:25;;;;;;;;;;;16.40;99.90;;;;;;8387228;28;19936;-73
2022/09/15 07:37:26;;;;;;;;;;;16.40;99.90;;;;;;8388996;28;19935;-73
2022/09/15 07:41:29;;;;;;;;;;;16.40;99.90;;;;;;8388214;28;19932;-73
2022/09/15 07:45:31;;;;;;;;;;;16.40;99.90;;;;;;8385919;28;19971;-73
2022/09/15 07:49:33;;;;;;;;;;;16.40;99.90;;;;;;8390288;28;19928;-73
2022/09/15 07:53:34;;;;;;;;;;;16.30;99.90;;;;;;8389477;28;19929;-73
2022/09/15 07:57:36;;;;;;;;;;;16.40;99.90;;;;;;8416262;27;19935;-73
2022/09/15 08:01:38;;;;;;;;;;;16.40;99.90;;;;;;8386441;28;20015;-73
2022/09/15 08:05:39;;;;;;;;;;;16.40;99.90;;;;;;8401140;28;20295;-72
2022/09/15 08:09:45;;;;;;;;;;;16.40;99.90;;;;;;8406726;28;19978;-72
2022/09/15 08:13:51;;;;;;;;;;;16.50;99.90;;;;;;8403087;28;19939;-72
2022/09/15 08:17:53;;;;;;;;;;;16.50;99.90;;;;;;8392965;28;19991;-73
2022/09/15 08:21:54;;;;;;;;;;;16.60;99.90;;;;;;8431847;27;20020;-73
2022/09/15 08:25:56;;;;;;;;;;;16.60;99.90;;;;;;8397061;28;19931;-73
2022/09/15 08:29:57;;;;;;;;;;;16.60;99.90;;;;;;8387923;28;19960;-73
2022/09/15 08:34:02;;;;;;;;;;;16.60;99.90;;;;;;8383752;28;19982;-73
2022/09/15 08:38:04;;;;;;;;;;;16.60;99.90;;;;;;8385018;28;19931;-73
2022/09/15 08:42:08;;;;;;;;;;;16.70;99.90;;;;;;8389132;28;20294;-74
2022/09/15 08:46:13;;;;;;;;;;;16.70;99.90;;;;;;8390220;28;20015;-73
2022/09/15 08:50:26;;;;;;;;;;;16.70;99.90;;;;;;8386470;28;20685;-73
2022/09/15 08:54:29;;;;;;;;;;;16.70;99.90;;;;;;8388137;28;20395;-73
2022/09/15 08:58:33;;;;;;;;;;;16.70;99.90;;;;;;8392366;28;20388;-72
2022/09/15 09:02:47;;;;;;;;;;;16.70;99.90;;;;;;8389810;28;19928;-73
2022/09/15 09:06:57;;;;;;;;;;;16.70;99.90;;;;;;8386231;28;19947;-73
2022/09/15 09:11:15;;;;;;;;;;;16.70;99.90;;;;;;8388001;28;20276;-72
2022/09/15 09:15:36;;;;;;;;;;;16.60;99.90;;;;;;8387868;28;19954;-73
2022/09/15 09:19:37;;;;;;;;;;;16.50;99.90;;;;;;8395375;28;20019;-73
2022/09/15 09:23:48;;;;;;;;;;;16.30;99.90;;;;;;8400931;28;19924;-72
2022/09/15 09:27:50;;;;;;;;;;;16.30;99.90;;;;;;8396500;28;20253;-73
2022/09/15 09:31:52;;;;;;;;;;;16.40;99.90;;;;;;8389009;28;20574;-72
2022/09/15 09:35:54;;;;;;;;;;;16.40;99.90;;;;;;8393744;28;19928;-73
2022/09/15 09:39:56;;;;;;;;;;;16.40;99.90;;;;;;8390631;28;19924;-73
2022/09/15 09:43:57;;;;;;;;;;;16.60;99.90;;;;;;8389308;28;20005;-73
2022/09/15 09:48:13;;;;;;;;;;;16.70;99.90;;;;;;8378043;28;19927;-72
2022/09/15 09:52:35;;;;;;;;;;;16.80;99.90;;;;;;8382356;28;20359;-73
2022/09/15 09:56:37;;;;;;;;;;;16.80;99.90;;;;;;8393972;28;20006;-72
2022/09/15 10:00:39;;;;;;;;;;;16.90;99.90;;;;;;8398652;28;20035;-72
2022/09/15 10:04:42;;;;;;;;;;;16.90;99.90;;;;;;8393693;28;19927;-73
2022/09/15 10:08:57;;;;;;;;;;;17.00;99.90;;;;;;8388781;28;19935;-73
2022/09/15 10:13:01;;;;;;;;;;;17.00;99.90;;;;;;8390564;28;20015;-73
2022/09/15 10:17:03;;;;;;;;;;;17.10;99.90;;;;;;8415515;27;19925;-74
2022/09/15 10:21:06;;;;;;;;;;;17.20;99.90;;;;;;8390898;28;19979;-73
2022/09/15 10:25:19;;;;;;;;;;;17.20;99.90;;;;;;8390231;28;19939;-73
2022/09/15 10:29:22;;;;;;;;;;;17.30;99.90;;;;;;8399125;28;19956;-73
2022/09/15 10:33:25;;;;;;;;;;;17.40;99.90;;;;;;8400629;28;19938;-72
2022/09/15 10:37:45;;;;;;;;;;;17.50;99.90;;;;;;8398031;28;19925;-73
2022/09/15 10:41:56;;;;;;;;;;;17.50;99.90;;;;;;8399164;28;20426;-72
2022/09/15 10:46:00;;;;;;;;;;;17.60;99.90;;;;;;8382874;28;19928;-73
2022/09/15 10:50:07;;;;;;;;;;;17.80;99.90;;;;;;8396912;28;20018;-72
2022/09/15 10:54:20;;;;;;;;;;;17.90;99.90;;;;;;8396695;28;20341;-72
2022/09/15 10:58:25;;;;;;;;;;;18.00;99.90;;;;;;8388335;28;19924;-73
2022/09/15 11:02:33;;;;;;;;;;;18.10;99.90;;;;;;8392853;28;19928;-73
2022/09/15 11:06:44;;;;;;;;;;;18.10;99.90;;;;;;8382302;28;20358;-73
2022/09/15 11:10:50;;;;;;;;;;;18.20;99.90;;;;;;8378112;28;19931;-73
2022/09/15 11:15:01;;;;;;;;;;;18.20;99.90;;;;;;8385904;28;20367;-73
2022/09/15 11:19:21;;;;;;;;;;;18.30;99.90;;;;;;8379747;28;20401;-74
2022/09/15 11:23:25;;;;;;;;;;;18.20;99.90;;;;;;8388120;28;19932;-74
2022/09/15 11:27:36;;;;;;;;;;;18.20;99.90;;;;;;8382314;28;19995;-72
2022/09/15 11:31:39;;;;;;;;;;;18.30;99.90;;;;;;8382074;28;19966;-74
2022/09/15 11:35:46;;;;;;;;;;;18.50;99.90;;;;;;8380193;28;19929;-73
2022/09/15 11:40:08;;;;;;;;;;;18.60;99.90;;;;;;8383931;28;20016;-73
2022/09/15 11:44:13;;;;;;;;;;;18.70;99.90;;;;;;8366166;28;20557;-74
2022/09/15 11:48:22;;;;;;;;;;;18.80;99.90;;;;;;8386144;28;20006;-73
2022/09/15 11:52:45;;;;;;;;;;;19.00;99.90;;;;;;8385860;28;19923;-73
2022/09/15 11:56:47;;;;;;;;;;;19.20;99.90;;;;;;8386577;28;19957;-73
2022/09/15 12:01:12;;;;;;;;;;;19.30;99.90;;;;;;8402558;28;20567;-74
2022/09/15 12:05:14;;;;;;;;;;;19.20;99.90;;;;;;8397951;28;19982;-73
2022/09/15 12:09:17;;;;;;;;;;;19.20;99.90;;;;;;8399703;28;20636;-73
2022/09/15 12:13:19;;;;;;;;;;;19.30;99.90;;;;;;8400622;28;19930;-73
2022/09/15 12:17:33;;;;;;;;;;;19.30;99.90;;;;;;8395635;28;19932;-73
2022/09/15 12:21:47;;;;;;;;;;;19.40;99.90;;;;;;8398995;28;19928;-73
2022/09/15 12:25:59;;;;;;;;;;;19.30;99.90;;;;;;8399535;28;20462;-74
2022/09/15 12:30:00;;;;;;;;;;;19.30;99.90;;;;;;8388600;28;19929;-74
2022/09/15 12:34:25;;;;;;;;;;;19.40;99.90;;;;;;8396470;28;20424;-74
2022/09/15 12:38:26;;;;;;;;;;;19.60;99.90;;;;;;8389596;28;19931;-74
2022/09/15 12:42:30;;;;;;;;;;;19.70;99.90;;;;;;8384245;28;19927;-73
2022/09/15 12:46:31;;;;;;;;;;;19.70;99.90;;;;;;8390889;28;19929;-73
2022/09/15 12:50:35;;;;;;;;;;;19.70;99.90;;;;;;8388295;28;19933;-72
2022/09/15 12:54:38;;;;;;;;;;;19.60;99.90;;;;;;8429313;27;20469;-73
2022/09/15 12:58:43;;;;;;;;;;;19.40;99.90;;;;;;8393706;28;20050;-73
2022/09/15 13:02:46;;;;;;;;;;;19.20;99.90;;;;;;8394088;28;19939;-73
2022/09/15 13:07:07;;;;;;;;;;;18.90;99.90;;;;;;8426862;27;20317;-73
2022/09/15 13:11:12;;;;;;;;;;;18.70;99.90;;;;;;8404165;28;19940;-74
2022/09/15 13:15:17;;;;;;;;;;;18.60;99.90;;;;;;8403508;28;19935;-74
2022/09/15 13:19:40;;;;;;;;;;;18.50;99.90;;;;;;8396997;28;20031;-74
2022/09/15 13:23:43;;;;;;;;;;;18.50;99.90;;;;;;8387782;28;19925;-73
2022/09/15 13:27:51;;;;;;;;;;;18.50;99.90;;;;;;8396726;28;19931;-73
2022/09/15 13:31:57;;;;;;;;;;;18.40;99.90;;;;;;8392015;28;20015;-73
2022/09/15 13:36:18;;;;;;;;;;;18.30;99.90;;;;;;8388756;28;19950;-72
2022/09/15 13:40:40;;;;;;;;;;;18.30;99.90;;;;;;8410985;27;20312;-73
2022/09/15 13:45:05;;;;;;;;;;;18.30;99.90;;;;;;8390954;28;19938;-74
2022/09/15 13:49:09;;;;;;;;;;;18.30;99.90;;;;;;8390539;28;20022;-74
2022/09/15 13:53:31;;;;;;;;;;;18.20;99.90;;;;;;8399860;28;19932;-73
2022/09/15 13:57:34;;;;;;;;;;;18.20;99.90;;;;;;8390681;28;19939;-73
2022/09/15 14:01:57;;;;;;;;;;;18.30;99.90;;;;;;8390083;28;20334;-73
2022/09/15 14:05:59;;;;;;;;;;;18.30;99.90;;;;;;8392052;28;20168;-73
2022/09/15 14:10:00;;;;;;;;;;;18.30;99.90;;;;;;8381736;28;19927;-72
2022/09/15 14:14:03;;;;;;;;;;;18.40;99.90;;;;;;8413363;27;20383;-73
2022/09/15 14:18:16;;;;;;;;;;;18.40;99.90;;;;;;8399808;28;19938;-73
2022/09/15 14:22:25;;;;;;;;;;;18.40;99.90;;;;;;8390729;28;20253;-72
2022/09/15 14:26:27;;;;;;;;;;;18.40;99.90;;;;;;8399951;28;19969;-73
2022/09/15 14:30:30;;;;;;;;;;;18.50;99.90;;;;;;8400632;28;19934;-73
2022/09/15 14:34:35;;;;;;;;;;;18.60;99.90;;;;;;8386308;28;20022;-73
2022/09/15 14:38:36;;;;;;;;;;;18.70;99.90;;;;;;8398803;28;19924;-73
2022/09/15 14:42:42;;;;;;;;;;;18.80;99.90;;;;;;8397599;28;19928;-73
2022/09/15 14:46:43;;;;;;;;;;;18.80;99.90;;;;;;8395811;28;20335;-73
2022/09/15 14:50:52;;;;;;;;;;;18.70;99.90;;;;;;8388993;28;19928;-73
2022/09/15 14:54:58;;;;;;;;;;;18.70;99.90;;;;;;8380199;28;20354;-73
2022/09/15 14:59:03;;;;;;;;;;;18.60;99.90;;;;;;8385356;28;20373;-72
2022/09/15 15:03:23;;;;;;;;;;;18.50;99.90;;;;;;8389342;28;19934;-72
2022/09/15 15:07:27;;;;;;;;;;;18.40;99.90;;;;;;8396659;28;19930;-73
2022/09/15 15:11:30;;;;;;;;;;;18.40;99.90;;;;;;8378785;28;20392;-72
2022/09/15 15:15:32;;;;;;;;;;;18.30;99.90;;;;;;8383225;28;19928;-73
2022/09/15 15:19:35;;;;;;;;;;;18.30;99.90;;;;;;8397172;28;20018;-74
2022/09/15 15:23:43;;;;;;;;;;;18.20;99.90;;;;;;8391731;28;19924;-73
2022/09/15 15:27:50;;;;;;;;;;;18.20;99.90;;;;;;8388088;28;20213;-72
2022/09/15 15:32:02;;;;;;;;;;;18.20;99.90;;;;;;8397510;28;19924;-73
2022/09/15 15:36:07;;;;;;;;;;;18.20;99.90;;;;;;8387963;28;19936;-72
2022/09/15 15:40:13;;;;;;;;;;;18.20;99.90;;;;;;8383712;28;20030;-72
2022/09/15 15:44:15;;;;;;;;;;;18.20;99.90;;;;;;8389917;28;20267;-74
2022/09/15 15:48:17;;;;;;;;;;;18.30;99.90;;;;;;8387885;28;20031;-73
2022/09/15 15:52:19;;;;;;;;;;;18.40;99.90;;;;;;8417654;27;19925;-72
2022/09/15 15:56:22;;;;;;;;;;;18.50;99.90;;;;;;8391801;28;20119;-72
2022/09/15 16:00:25;;;;;;;;;;;18.50;99.90;;;;;;8383528;28;19936;-73
2022/09/15 16:04:26;;;;;;;;;;;18.50;99.90;;;;;;8381061;28;19967;-73
2022/09/15 16:08:30;;;;;;;;;;;18.40;99.90;;;;;;8383096;28;20391;-72
2022/09/15 16:12:32;;;;;;;;;;;18.30;99.90;;;;;;8373656;28;20406;-72
2022/09/15 16:16:35;;;;;;;;;;;18.30;99.90;;;;;;8391308;28;19948;-73
2022/09/15 16:20:37;;;;;;;;;;;18.20;99.90;;;;;;8378080;28;19928;-72
2022/09/15 16:24:39;;;;;;;;;;;18.10;99.90;;;;;;8377064;28;20567;-73
2022/09/15 16:28:41;;;;;;;;;;;18.10;99.90;;;;;;8420375;27;20007;-73
2022/09/15 16:32:43;;;;;;;;;;;18.10;99.90;;;;;;8385937;28;20329;-72
2022/09/15 16:36:44;;;;;;;;;;;18.10;99.90;;;;;;8423928;27;20334;-72
2022/09/15 16:40:46;;;;;;;;;;;18.00;99.90;;;;;;8412890;27;19932;-73
2022/09/15 16:44:48;;;;;;;;;;;17.90;99.90;;;;;;8386171;28;20391;-73
2022/09/15 16:48:50;;;;;;;;;;;17.90;99.90;;;;;;8381990;28;19943;-72
2022/09/15 16:52:51;;;;;;;;;;;17.80;99.90;;;;;;8376859;28;20450;-72
2022/09/15 16:56:53;;;;;;;;;;;17.80;99.90;;;;;;8387127;28;19924;-73
2022/09/15 17:00:55;;;;;;;;;;;18.00;99.90;;;;;;8381112;28;19932;-73
2022/09/15 17:04:57;;;;;;;;;;;18.20;99.90;;;;;;8386451;28;20043;-73
2022/09/15 17:08:58;;;;;;;;;;;18.10;99.90;;;;;;8383599;28;20398;-73
2022/09/15 17:13:00;;;;;;;;;;;18.00;99.90;;;;;;8386546;28;19925;-72
2022/09/15 17:17:02;;;;;;;;;;;17.90;99.90;;;;;;8383865;28;20287;-73
2022/09/15 17:21:04;;;;;;;;;;;18.10;99.90;;;;;;8387112;28;20015;-73
2022/09/15 17:25:18;;;;;;;;;;;18.40;99.90;;;;;;8382721;28;19928;-73
2022/09/15 17:29:19;;;;;;;;;;;18.50;99.90;;;;;;8380980;28;19939;-73
2022/09/15 17:33:21;;;;;;;;;;;18.30;99.90;;;;;;8388181;28;19935;-73
2022/09/15 17:37:23;;;;;;;;;;;18.00;99.90;;;;;;8384673;28;19934;-73
2022/09/15 17:41:24;;;;;;;;;;;17.80;99.90;;;;;;8383776;28;19928;-73
2022/09/15 17:45:29;;;;;;;;;;;17.50;99.90;;;;;;8383006;28;19951;-72
2022/09/15 17:49:30;;;;;;;;;;;17.40;99.90;;;;;;8381565;28;19934;-73
2022/09/15 17:53:32;;;;;;;;;;;17.30;99.90;;;;;;8384658;28;19932;-72
2022/09/15 17:57:33;;;;;;;;;;;17.10;99.90;;;;;;8379514;28;20277;-73
2022/09/15 18:01:35;;;;;;;;;;;17.10;99.90;;;;;;8385596;28;20015;-73
2022/09/15 18:05:36;;;;;;;;;;;17.00;99.90;;;;;;8385840;28;19946;-73
2022/09/15 18:09:38;;;;;;;;;;;16.90;99.90;;;;;;8383718;28;19928;-73
2022/09/15 18:13:40;;;;;;;;;;;16.90;99.90;;;;;;8379018;28;19924;-73
2022/09/15 18:17:42;;;;;;;;;;;16.80;99.90;;;;;;8387648;28;19928;-73
2022/09/15 18:21:45;;;;;;;;;;;16.80;99.90;;;;;;8383801;28;19928;-73
2022/09/15 18:25:48;;;;;;;;;;;16.60;99.90;;;;;;8384744;28;20463;-72
2022/09/15 18:29:50;;;;;;;;;;;16.40;99.90;;;;;;8384690;28;19946;-73
2022/09/15 18:33:51;;;;;;;;;;;16.20;99.90;;;;;;8382804;28;19932;-73
2022/09/15 18:37:55;;;;;;;;;;;16.10;99.90;;;;;;8385377;28;20387;-73
2022/09/15 18:41:56;;;;;;;;;;;16.00;99.90;;;;;;8381431;28;19941;-73
2022/09/15 18:45:58;;;;;;;;;;;16.00;99.90;;;;;;8393811;28;19974;-73
2022/09/15 18:50:00;;;;;;;;;;;16.00;99.90;;;;;;8386760;28;19933;-73
2022/09/15 18:54:02;;;;;;;;;;;16.00;99.90;;;;;;8390628;28;19930;-73
2022/09/15 18:58:04;;;;;;;;;;;16.00;99.90;;;;;;8382052;28;19935;-73
2022/09/15 19:02:06;;;;;;;;;;;16.00;99.90;;;;;;8384207;28;20023;-73
2022/09/15 19:06:07;;;;;;;;;;;16.00;99.90;;;;;;8382538;28;19938;-73
2022/09/15 19:10:10;;;;;;;;;;;16.00;99.90;;;;;;8379000;28;20352;-74
2022/09/15 19:14:11;;;;;;;;;;;16.00;99.90;;;;;;8385481;28;20357;-74
2022/09/15 19:18:13;;;;;;;;;;;16.00;99.90;;;;;;8383899;28;20693;-73
2022/09/15 19:22:15;;;;;;;;;;;15.90;99.90;;;;;;8382323;28;19924;-73
2022/09/15 19:26:16;;;;;;;;;;;15.90;99.90;;;;;;8383339;28;19924;-74
2022/09/15 19:30:18;;;;;;;;;;;15.90;99.90;;;;;;8389547;28;19946;-74
2022/09/15 19:34:20;;;;;;;;;;;15.90;99.90;;;;;;8380856;28;19932;-73
2022/09/15 19:38:21;;;;;;;;;;;15.90;99.90;;;;;;8414023;27;19929;-73
2022/09/15 19:42:23;;;;;;;;;;;15.90;99.90;;;;;;8380623;28;19924;-73
2022/09/15 19:46:24;;;;;;;;;;;15.90;99.90;;;;;;8381565;28;19940;-73
2022/09/15 19:50:26;;;;;;;;;;;15.90;99.90;;;;;;8385263;28;19936;-73
2022/09/15 19:54:28;;;;;;;;;;;15.80;99.90;;;;;;8381413;28;20018;-73
2022/09/15 19:58:30;;;;;;;;;;;15.80;99.90;;;;;;8416292;27;19943;-74
2022/09/15 20:02:32;;;;;;;;;;;15.80;99.90;;;;;;8377265;28;19935;-73
2022/09/15 20:06:34;;;;;;;;;;;15.80;99.90;;;;;;8380206;28;19934;-73
2022/09/15 20:10:37;;;;;;;;;;;15.80;99.90;;;;;;8383985;28;19928;-73
2022/09/15 20:14:41;;;;;;;;;;;15.80;99.90;;;;;;8389519;28;22265;-73
2022/09/15 20:18:45;;;;;;;;;;;15.80;99.90;;;;;;8382936;28;19928;-73
2022/09/15 20:22:47;;;;;;;;;;;15.80;99.90;;;;;;8375691;28;20365;-73
2022/09/15 20:26:48;;;;;;;;;;;15.80;99.90;;;;;;8385930;28;19989;-74
2022/09/15 20:31:16;;;;;;;;;;;15.70;99.90;;;;;;8389638;28;20015;-72
2022/09/15 20:35:18;;;;;;;;;;;15.70;99.90;;;;;;8380126;28;19928;-73
2022/09/15 20:39:21;;;;;;;;;;;15.70;99.90;;;;;;8382535;28;19960;-73
2022/09/15 20:43:22;;;;;;;;;;;15.70;99.90;;;;;;8376975;28;19959;-73
2022/09/15 20:47:24;;;;;;;;;;;15.70;99.90;;;;;;8384861;28;20342;-73
2022/09/15 20:51:28;;;;;;;;;;;15.70;99.90;;;;;;8381234;28;20023;-74
2022/09/15 20:55:30;;;;;;;;;;;15.60;99.90;;;;;;8381736;28;20075;-73
2022/09/15 20:59:31;;;;;;;;;;;15.60;99.90;;;;;;8384496;28;20371;-72
2022/09/15 21:03:34;;;;;;;;;;;15.60;99.90;;;;;;8389441;28;19932;-73
2022/09/15 21:07:35;;;;;;;;;;;15.60;99.90;;;;;;8399929;28;20031;-73
2022/09/15 21:11:38;;;;;;;;;;;15.50;99.90;;;;;;8422330;27;20405;-73
2022/09/15 21:15:39;;;;;;;;;;;15.50;99.90;;;;;;8402172;28;20372;-73
2022/09/15 21:19:42;;;;;;;;;;;15.50;99.90;;;;;;8407485;28;19924;-73
2022/09/15 21:23:45;;;;;;;;;;;15.40;99.90;;;;;;8404595;28;20295;-72
2022/09/15 21:27:47;;;;;;;;;;;15.40;99.90;;;;;;8404155;28;19931;-73
2022/09/15 21:31:49;;;;;;;;;;;15.30;99.90;;;;;;8408166;28;19955;-74
2022/09/15 21:35:51;;;;;;;;;;;15.20;99.90;;;;;;8407329;28;19928;-73
2022/09/15 21:39:52;;;;;;;;;;;15.10;99.90;;;;;;8409511;28;20015;-73
2022/09/15 21:43:55;;;;;;;;;;;15.10;99.90;;;;;;8410247;28;19986;-73
2022/09/15 21:47:56;;;;;;;;;;;15.10;99.90;;;;;;8443599;27;20039;-73
2022/09/15 21:51:58;;;;;;;;;;;15.00;99.90;;;;;;8411918;28;19928;-73
2022/09/15 21:56:00;;;;;;;;;;;15.00;99.90;;;;;;8416949;28;20290;-73
2022/09/15 22:00:03;;;;;;;;;;;14.90;99.90;;;;;;8422037;28;19959;-73
2022/09/15 22:04:06;;;;;;;;;;;14.80;99.90;;;;;;8408910;28;19924;-73
2022/09/15 22:08:09;;;;;;;;;;;14.80;99.90;;;;;;8405696;28;19936;-74
2022/09/15 22:12:10;;;;;;;;;;;14.70;99.90;;;;;;8424665;27;19932;-75
2022/09/15 22:16:13;;;;;;;;;;;14.70;99.90;;;;;;8399295;28;19929;-74
2022/09/15 22:20:15;;;;;;;;;;;14.60;99.90;;;;;;8412580;28;19954;-74
2022/09/15 22:24:17;;;;;;;;;;;14.50;99.90;;;;;;8411833;28;19924;-74
2022/09/15 22:28:19;;;;;;;;;;;14.50;99.90;;;;;;8410256;28;19924;-75
2022/09/15 22:32:20;;;;;;;;;;;14.50;99.90;;;;;;8409485;28;20398;-76
2022/09/15 22:36:24;;;;;;;;;;;14.60;99.90;;;;;;8409451;28;20377;-74
2022/09/15 22:40:29;;;;;;;;;;;14.60;99.90;;;;;;8408210;28;19924;-74
2022/09/15 22:44:31;;;;;;;;;;;14.70;99.90;;;;;;8401327;28;20297;-75
2022/09/15 22:48:33;;;;;;;;;;;14.80;99.90;;;;;;8409841;28;19960;-75
2022/09/15 22:52:34;;;;;;;;;;;14.80;99.90;;;;;;8399759;28;19929;-74
2022/09/15 22:56:36;;;;;;;;;;;14.70;99.90;;;;;;8410783;28;19928;-74
2022/09/15 23:00:38;;;;;;;;;;;14.80;99.90;;;;;;8414011;28;20409;-75
2022/09/15 23:04:39;;;;;;;;;;;14.70;99.90;;;;;;8402975;28;20344;-74
2022/09/15 23:08:41;;;;;;;;;;;14.70;99.90;;;;;;8401084;28;19944;-74
2022/09/15 23:12:43;;;;;;;;;;;14.60;99.90;;;;;;8405682;28;20031;-74
2022/09/15 23:16:44;;;;;;;;;;;14.60;99.90;;;;;;8407871;28;19935;-75
2022/09/15 23:20:46;;;;;;;;;;;14.50;99.90;;;;;;8406815;28;19930;-74
2022/09/15 23:24:48;;;;;;;;;;;14.50;99.90;;;;;;8402000;28;19931;-75
2022/09/15 23:28:49;;;;;;;;;;;14.40;99.90;;;;;;8404532;28;19924;-75
2022/09/15 23:32:51;;;;;;;;;;;14.40;99.90;;;;;;8407942;28;20018;-75
2022/09/15 23:36:53;;;;;;;;;;;14.40;99.90;;;;;;8407092;28;19930;-75
2022/09/15 23:40:54;;;;;;;;;;;14.40;99.90;;;;;;8405428;28;19924;-75
2022/09/15 23:44:56;;;;;;;;;;;14.40;99.90;;;;;;8406014;28;19924;-75
2022/09/15 23:48:57;;;;;;;;;;;14.50;99.90;;;;;;8408702;28;19967;-75
2022/09/15 23:52:59;;;;;;;;;;;14.50;99.90;;;;;;8410726;28;19942;-75